sensor_id;sensor_type;location;lat;lon;timestamp;temperature;humidity
14934;DHT22;7560;51.364;12.384;2022-11-20T00:02:32;-1.80;99.90
14934;DHT22;7560;51.364;12.384;2022-11-20T00:07:35;-1.80;99.90
14934;DHT22;7560;51.364;12.384;2022-11-20T00:12:37;-1.80;99.90
14934;DHT22;7560;51.364;12.384;2022-11-20T00:17:38;-1.80;99.90
14934;DHT22;7560;51.364;12.384;2022-11-20T00:22:40;-1.90;99.90
14934;DHT22;7560;51.364;12.384;2022-11-20T00:27:42;-1.90;99.90
14934;DHT22;7560;51.364;12.384;2022-11-20T00:32:44;-2.00;99.90
14934;DHT22;7560;51.364;12.384;2022-11-20T00:37:45;-2.00;99.90
14934;DHT22;7560;51.364;12.384;2022-11-20T00:42:47;-2.00;99.90
14934;DHT22;7560;51.364;12.384;2022-11-20T00:47:49;-2.10;99.90
14934;DHT22;7560;51.364;12.384;2022-11-20T00:52:50;-2.10;99.90
14934;DHT22;7560;51.364;12.384;2022-11-20T00:57:52;-2.10;99.90
14934;DHT22;7560;51.364;12.384;2022-11-20T01:02:55;-2.20;99.90
14934;DHT22;7560;51.364;12.384;2022-11-20T01:07:57;-2.20;99.90
14934;DHT22;7560;51.364;12.384;2022-11-20T01:12:59;-2.20;99.90
14934;DHT22;7560;51.364;12.384;2022-11-20T01:18:26;-2.20;99.90
14934;DHT22;7560;51.364;12.384;2022-11-20T01:23:30;-2.30;99.90
14934;DHT22;7560;51.364;12.384;2022-11-20T01:28:33;-2.30;99.90
14934;DHT22;7560;51.364;12.384;2022-11-20T01:33:34;-2.30;99.90
14934;DHT22;7560;51.364;12.384;2022-11-20T01:38:36;-2.30;99.90
14934;DHT22;7560;51.364;12.384;2022-11-20T01:43:39;-2.30;99.90
14934;DHT22;7560;51.364;12.384;2022-11-20T01:54:01;-2.30;99.90
14934;DHT22;7560;51.364;12.384;2022-11-20T01:59:05;-2.40;99.90
14934;DHT22;7560;51.364;12.384;2022-11-20T02:04:08;-2.40;99.90
14934;DHT22;7560;51.364;12.384;2022-11-20T02:09:11;-2.40;99.90
14934;DHT22;7560;51.364;12.384;2022-11-20T02:14:14;-2.40;99.90
14934;DHT22;7560;51.364;12.384;2022-11-20T02:19:25;-2.50;99.90
14934;DHT22;7560;51.364;12.384;2022-11-20T02:24:28;-2.50;99.90
14934;DHT22;7560;51.364;12.384;2022-11-20T02:34:37;-2.50;99.90
14934;DHT22;7560;51.364;12.384;2022-11-20T02:39:39;-2.50;99.90
14934;DHT22;7560;51.364;12.384;2022-11-20T02:44:41;-2.50;99.90
14934;DHT22;7560;51.364;12.384;2022-11-20T02:49:43;-2.50;99.90
14934;DHT22;7560;51.364;12.384;2022-11-20T02:54:45;-2.50;99.90
14934;DHT22;7560;51.364;12.384;2022-11-20T02:59:46;-2.50;99.90
14934;DHT22;7560;51.364;12.384;2022-11-20T03:04:48;-2.60;99.90
14934;DHT22;7560;51.364;12.384;2022-11-20T03:09:50;-2.60;99.90
14934;DHT22;7560;51.364;12.384;2022-11-20T03:14:51;-2.60;99.90
14934;DHT22;7560;51.364;12.384;2022-11-20T03:19:54;-2.60;99.90
14934;DHT22;7560;51.364;12.384;2022-11-20T03:24:55;-2.60;99.90
14934;DHT22;7560;51.364;12.384;2022-11-20T03:29:57;-2.60;99.90
14934;DHT22;7560;51.364;12.384;2022-11-20T03:34:59;-2.60;99.90
14934;DHT22;7560;51.364;12.384;2022-11-20T03:40:00;-2.50;99.90
14934;DHT22;7560;51.364;12.384;2022-11-20T03:45:02;-2.60;99.90
14934;DHT22;7560;51.364;12.384;2022-11-20T03:50:05;-2.60;99.90
14934;DHT22;7560;51.364;12.384;2022-11-20T03:55:07;-2.60;99.90
14934;DHT22;7560;51.364;12.384;2022-11-20T04:00:09;-2.60;99.90
14934;DHT22;7560;51.364;12.384;2022-11-20T04:05:11;-2.60;99.90
14934;DHT22;7560;51.364;12.384;2022-11-20T04:10:13;-2.70;99.90
14934;DHT22;7560;51.364;12.384;2022-11-20T04:15:15;-2.60;99.90
14934;DHT22;7560;51.364;12.384;2022-11-20T04:20:16;-2.70;99.90
14934;DHT22;7560;51.364;12.384;2022-11-20T04:25:18;-2.70;99.90
14934;DHT22;7560;51.364;12.384;2022-11-20T04:30:20;-2.60;99.90
14934;DHT22;7560;51.364;12.384;2022-11-20T04:35:21;-2.70;99.90
14934;DHT22;7560;51.364;12.384;2022-11-20T04:40:23;-2.70;99.90
14934;DHT22;7560;51.364;12.384;2022-11-20T04:45:25;-2.70;99.90
14934;DHT22;7560;51.364;12.384;2022-11-20T04:50:26;-2.80;99.90
14934;DHT22;7560;51.364;12.384;2022-11-20T04:55:28;-2.90;99.90
14934;DHT22;7560;51.364;12.384;2022-11-20T05:00:30;-2.90;99.90
14934;DHT22;7560;51.364;12.384;2022-11-20T05:05:34;-3.00;99.90
14934;DHT22;7560;51.364;12.384;2022-11-20T05:10:36;-2.90;99.90
14934;DHT22;7560;51.364;12.384;2022-11-20T05:15:37;-3.00;99.90
14934;DHT22;7560;51.364;12.384;2022-11-20T05:20:39;-2.90;99.90
14934;DHT22;7560;51.364;12.384;2022-11-20T05:25:41;-3.00;99.90
14934;DHT22;7560;51.364;12.384;2022-11-20T05:30:42;-3.00;99.90
14934;DHT22;7560;51.364;12.384;2022-11-20T05:35:44;-3.00;99.90
14934;DHT22;7560;51.364;12.384;2022-11-20T05:40:46;-3.00;99.90
14934;DHT22;7560;51.364;12.384;2022-11-20T05:45:54;-3.00;99.90
14934;DHT22;7560;51.364;12.384;2022-11-20T05:51:00;-3.00;99.90
14934;DHT22;7560;51.364;12.384;2022-11-20T05:56:04;-3.10;99.90
14934;DHT22;7560;51.364;12.384;2022-11-20T06:01:19;-3.10;99.90
14934;DHT22;7560;51.364;12.384;2022-11-20T06:06:21;-3.20;99.90
14934;DHT22;7560;51.364;12.384;2022-11-20T06:11:23;-3.20;99.90
14934;DHT22;7560;51.364;12.384;2022-11-20T06:16:25;-3.20;99.90
14934;DHT22;7560;51.364;12.384;2022-11-20T06:21:27;-3.20;99.90
14934;DHT22;7560;51.364;12.384;2022-11-20T06:26:30;-3.30;99.90
14934;DHT22;7560;51.364;12.384;2022-11-20T06:31:32;-3.30;99.90
14934;DHT22;7560;51.364;12.384;2022-11-20T06:36:39;-3.30;99.90
14934;DHT22;7560;51.364;12.384;2022-11-20T06:41:40;-3.30;99.90
14934;DHT22;7560;51.364;12.384;2022-11-20T06:46:42;-3.30;99.90
14934;DHT22;7560;51.364;12.384;2022-11-20T06:51:44;-3.20;99.90
14934;DHT22;7560;51.364;12.384;2022-11-20T06:56:48;-3.30;99.90
14934;DHT22;7560;51.364;12.384;2022-11-20T07:01:50;-3.20;99.90
14934;DHT22;7560;51.364;12.384;2022-11-20T07:06:52;-3.20;99.90
14934;DHT22;7560;51.364;12.384;2022-11-20T07:11:54;-3.10;99.90
14934;DHT22;7560;51.364;12.384;2022-11-20T07:16:55;-3.10;99.90
14934;DHT22;7560;51.364;12.384;2022-11-20T07:21:57;-3.00;99.90
14934;DHT22;7560;51.364;12.384;2022-11-20T07:26:59;-3.00;99.90
14934;DHT22;7560;51.364;12.384;2022-11-20T07:32:01;-2.90;99.90
14934;DHT22;7560;51.364;12.384;2022-11-20T07:37:02;-2.90;99.90
14934;DHT22;7560;51.364;12.384;2022-11-20T07:42:10;-2.80;99.90
14934;DHT22;7560;51.364;12.384;2022-11-20T07:47:13;-2.80;99.90
14934;DHT22;7560;51.364;12.384;2022-11-20T07:52:15;-2.80;99.90
14934;DHT22;7560;51.364;12.384;2022-11-20T07:57:17;-2.80;99.90
14934;DHT22;7560;51.364;12.384;2022-11-20T08:02:18;-2.70;99.90
14934;DHT22;7560;51.364;12.384;2022-11-20T08:07:20;-2.70;99.90
14934;DHT22;7560;51.364;12.384;2022-11-20T08:12:22;-2.60;99.90
14934;DHT22;7560;51.364;12.384;2022-11-20T08:17:42;-2.60;99.90
14934;DHT22;7560;51.364;12.384;2022-11-20T08:23:04;-2.50;99.90
14934;DHT22;7560;51.364;12.384;2022-11-20T08:28:09;-2.40;99.90
14934;DHT22;7560;51.364;12.384;2022-11-20T08:33:21;-2.40;99.90
14934;DHT22;7560;51.364;12.384;2022-11-20T08:38:23;-2.30;99.90
14934;DHT22;7560;51.364;12.384;2022-11-20T08:43:24;-2.30;99.90
14934;DHT22;7560;51.364;12.384;2022-11-20T08:48:26;-2.20;99.90
14934;DHT22;7560;51.364;12.384;2022-11-20T08:53:28;-2.20;99.90
14934;DHT22;7560;51.364;12.384;2022-11-20T08:58:31;-2.10;99.90
14934;DHT22;7560;51.364;12.384;2022-11-20T09:03:55;-2.00;99.90
14934;DHT22;7560;51.364;12.384;2022-11-20T09:08:58;-2.00;99.90
14934;DHT22;7560;51.364;12.384;2022-11-20T09:14:06;-1.90;99.90
14934;DHT22;7560;51.364;12.384;2022-11-20T09:19:08;-1.80;99.90
14934;DHT22;7560;51.364;12.384;2022-11-20T09:24:30;-1.80;99.90
14934;DHT22;7560;51.364;12.384;2022-11-20T09:29:31;-1.70;99.90
14934;DHT22;7560;51.364;12.384;2022-11-20T09:34:33;-1.60;99.90
14934;DHT22;7560;51.364;12.384;2022-11-20T09:39:35;-1.50;99.90
14934;DHT22;7560;51.364;12.384;2022-11-20T09:44:47;-1.50;99.90
14934;DHT22;7560;51.364;12.384;2022-11-20T09:50:26;-1.40;99.90
14934;DHT22;7560;51.364;12.384;2022-11-20T09:55:30;-1.30;99.90
14934;DHT22;7560;51.364;12.384;2022-11-20T10:00:32;-1.30;99.90
14934;DHT22;7560;51.364;12.384;2022-11-20T10:05:54;-1.20;99.90
14934;DHT22;7560;51.364;12.384;2022-11-20T10:11:19;-1.10;99.90
14934;DHT22;7560;51.364;12.384;2022-11-20T10:16:52;-1.10;99.90
14934;DHT22;7560;51.364;12.384;2022-11-20T10:22:26;-1.00;99.90
14934;DHT22;7560;51.364;12.384;2022-11-20T10:32:55;-0.80;99.90
14934;DHT22;7560;51.364;12.384;2022-11-20T10:38:02;-0.70;99.90
14934;DHT22;7560;51.364;12.384;2022-11-20T10:43:20;-0.50;99.90
14934;DHT22;7560;51.364;12.384;2022-11-20T10:53:51;-0.20;99.90
14934;DHT22;7560;51.364;12.384;2022-11-20T11:04:36;0.20;99.90
14934;DHT22;7560;51.364;12.384;2022-11-20T11:09:43;0.40;99.90
14934;DHT22;7560;51.364;12.384;2022-11-20T11:14:54;0.60;99.90
14934;DHT22;7560;51.364;12.384;2022-11-20T11:25:04;0.50;99.90
14934;DHT22;7560;51.364;12.384;2022-11-20T11:30:17;0.40;99.90
14934;DHT22;7560;51.364;12.384;2022-11-20T11:35:27;0.40;99.90
14934;DHT22;7560;51.364;12.384;2022-11-20T11:40:31;0.60;99.90
14934;DHT22;7560;51.364;12.384;2022-11-20T11:45:34;0.60;99.90
14934;DHT22;7560;51.364;12.384;2022-11-20T11:50:35;0.30;99.90
14934;DHT22;7560;51.364;12.384;2022-11-20T11:56:16;0.40;99.90
14934;DHT22;7560;51.364;12.384;2022-11-20T12:01:48;0.30;99.90
14934;DHT22;7560;51.364;12.384;2022-11-20T12:06:45;0.40;99.90
14934;DHT22;7560;51.364;12.384;2022-11-20T12:12:15;0.40;99.90
14934;DHT22;7560;51.364;12.384;2022-11-20T12:17:18;0.40;99.90
14934;DHT22;7560;51.364;12.384;2022-11-20T12:43:57;0.70;99.90
14934;DHT22;7560;51.364;12.384;2022-11-20T13:00:47;0.80;99.90
14934;DHT22;7560;51.364;12.384;2022-11-20T13:21:37;0.90;99.90
14934;DHT22;7560;51.364;12.384;2022-11-20T13:26:39;1.00;99.90
14934;DHT22;7560;51.364;12.384;2022-11-20T13:31:47;1.10;99.90
14934;DHT22;7560;51.364;12.384;2022-11-20T13:36:51;1.20;99.90
14934;DHT22;7560;51.364;12.384;2022-11-20T13:41:59;1.40;99.90
14934;DHT22;7560;51.364;12.384;2022-11-20T13:47:01;1.50;99.90
14934;DHT22;7560;51.364;12.384;2022-11-20T14:03:43;1.80;99.90
14934;DHT22;7560;51.364;12.384;2022-11-20T14:09:05;1.80;99.90
14934;DHT22;7560;51.364;12.384;2022-11-20T14:14:19;1.90;99.90
14934;DHT22;7560;51.364;12.384;2022-11-20T14:19:27;2.00;99.90
14934;DHT22;7560;51.364;12.384;2022-11-20T14:24:30;2.10;99.90
14934;DHT22;7560;51.364;12.384;2022-11-20T14:29:36;2.00;99.90
14934;DHT22;7560;51.364;12.384;2022-11-20T14:34:41;1.70;99.90
14934;DHT22;7560;51.364;12.384;2022-11-20T14:39:55;1.50;99.90
14934;DHT22;7560;51.364;12.384;2022-11-20T14:44:58;1.40;99.90
14934;DHT22;7560;51.364;12.384;2022-11-20T14:50:01;1.20;99.90
14934;DHT22;7560;51.364;12.384;2022-11-20T14:55:13;1.10;99.90
14934;DHT22;7560;51.364;12.384;2022-11-20T15:00:26;0.90;99.90
14934;DHT22;7560;51.364;12.384;2022-11-20T15:05:46;0.80;99.90
14934;DHT22;7560;51.364;12.384;2022-11-20T15:10:50;0.70;99.90
14934;DHT22;7560;51.364;12.384;2022-11-20T15:15:56;0.60;99.90
14934;DHT22;7560;51.364;12.384;2022-11-20T15:21:01;0.50;99.90
14934;DHT22;7560;51.364;12.384;2022-11-20T15:26:05;0.40;99.90
14934;DHT22;7560;51.364;12.384;2022-11-20T15:31:12;0.30;99.90
14934;DHT22;7560;51.364;12.384;2022-11-20T15:36:15;0.20;99.90
14934;DHT22;7560;51.364;12.384;2022-11-20T15:41:16;0.20;99.90
14934;DHT22;7560;51.364;12.384;2022-11-20T15:46:25;0.20;99.90
14934;DHT22;7560;51.364;12.384;2022-11-20T15:51:32;0.10;99.90
14934;DHT22;7560;51.364;12.384;2022-11-20T15:56:35;0.00;99.90
14934;DHT22;7560;51.364;12.384;2022-11-20T16:01:37;0.00;99.90
14934;DHT22;7560;51.364;12.384;2022-11-20T16:06:39;0.00;99.90
14934;DHT22;7560;51.364;12.384;2022-11-20T16:11:40;-0.10;99.90
14934;DHT22;7560;51.364;12.384;2022-11-20T16:16:42;-0.20;99.90
14934;DHT22;7560;51.364;12.384;2022-11-20T16:21:45;-0.20;99.90
14934;DHT22;7560;51.364;12.384;2022-11-20T16:26:46;-0.30;99.90
14934;DHT22;7560;51.364;12.384;2022-11-20T16:31:48;-0.30;99.90
14934;DHT22;7560;51.364;12.384;2022-11-20T16:36:50;-0.30;99.90
14934;DHT22;7560;51.364;12.384;2022-11-20T16:41:52;-0.40;99.90
14934;DHT22;7560;51.364;12.384;2022-11-20T16:46:54;-0.40;99.90
14934;DHT22;7560;51.364;12.384;2022-11-20T16:51:56;-0.40;99.90
14934;DHT22;7560;51.364;12.384;2022-11-20T16:56:57;-0.40;99.90
14934;DHT22;7560;51.364;12.384;2022-11-20T17:01:59;-0.50;99.90
14934;DHT22;7560;51.364;12.384;2022-11-20T17:07:01;-0.60;99.90
14934;DHT22;7560;51.364;12.384;2022-11-20T17:12:08;-0.60;99.90
14934;DHT22;7560;51.364;12.384;2022-11-20T17:17:10;-0.60;99.90
14934;DHT22;7560;51.364;12.384;2022-11-20T17:22:12;-0.60;99.90
14934;DHT22;7560;51.364;12.384;2022-11-20T17:27:14;-0.60;99.90
14934;DHT22;7560;51.364;12.384;2022-11-20T17:32:15;-0.60;99.90
14934;DHT22;7560;51.364;12.384;2022-11-20T17:37:17;-0.70;99.90
14934;DHT22;7560;51.364;12.384;2022-11-20T17:42:19;-0.70;99.90
14934;DHT22;7560;51.364;12.384;2022-11-20T17:47:37;-0.70;99.90
14934;DHT22;7560;51.364;12.384;2022-11-20T17:52:38;-0.70;99.90
14934;DHT22;7560;51.364;12.384;2022-11-20T17:57:40;-0.80;99.90
14934;DHT22;7560;51.364;12.384;2022-11-20T18:02:54;-0.80;99.90
14934;DHT22;7560;51.364;12.384;2022-11-20T18:07:56;-0.80;99.90
14934;DHT22;7560;51.364;12.384;2022-11-20T18:12:58;-0.80;99.90
14934;DHT22;7560;51.364;12.384;2022-11-20T18:17:59;-0.80;99.90
14934;DHT22;7560;51.364;12.384;2022-11-20T18:23:01;-0.80;99.90
14934;DHT22;7560;51.364;12.384;2022-11-20T18:28:03;-0.80;99.90
14934;DHT22;7560;51.364;12.384;2022-11-20T18:33:04;-0.70;99.90
14934;DHT22;7560;51.364;12.384;2022-11-20T18:38:06;-0.80;99.90
14934;DHT22;7560;51.364;12.384;2022-11-20T18:43:10;-0.70;99.90
14934;DHT22;7560;51.364;12.384;2022-11-20T18:48:30;-0.70;99.90
14934;DHT22;7560;51.364;12.384;2022-11-20T18:53:35;-0.60;99.90
14934;DHT22;7560;51.364;12.384;2022-11-20T18:58:37;-0.50;99.90
14934;DHT22;7560;51.364;12.384;2022-11-20T19:03:40;-0.30;99.90
14934;DHT22;7560;51.364;12.384;2022-11-20T19:08:43;-0.20;99.90
14934;DHT22;7560;51.364;12.384;2022-11-20T19:13:45;-0.20;99.90
14934;DHT22;7560;51.364;12.384;2022-11-20T19:18:47;-0.20;99.90
14934;DHT22;7560;51.364;12.384;2022-11-20T19:23:51;-0.20;99.90
14934;DHT22;7560;51.364;12.384;2022-11-20T19:28:53;-0.10;99.90
14934;DHT22;7560;51.364;12.384;2022-11-20T19:33:57;0.00;99.90
14934;DHT22;7560;51.364;12.384;2022-11-20T19:39:00;0.10;99.90
14934;DHT22;7560;51.364;12.384;2022-11-20T19:44:20;0.30;99.90
14934;DHT22;7560;51.364;12.384;2022-11-20T19:49:22;0.30;99.90
14934;DHT22;7560;51.364;12.384;2022-11-20T19:54:24;0.40;99.90
14934;DHT22;7560;51.364;12.384;2022-11-20T19:59:25;0.50;99.90
14934;DHT22;7560;51.364;12.384;2022-11-20T20:04:27;0.50;99.90
14934;DHT22;7560;51.364;12.384;2022-11-20T20:09:29;0.50;99.90
14934;DHT22;7560;51.364;12.384;2022-11-20T20:14:31;0.60;99.90
14934;DHT22;7560;51.364;12.384;2022-11-20T20:19:33;0.50;99.90
14934;DHT22;7560;51.364;12.384;2022-11-20T20:24:34;0.50;99.90
14934;DHT22;7560;51.364;12.384;2022-11-20T20:29:36;0.50;99.90
14934;DHT22;7560;51.364;12.384;2022-11-20T20:34:38;0.50;99.90
14934;DHT22;7560;51.364;12.384;2022-11-20T20:39:39;0.50;99.90
14934;DHT22;7560;51.364;12.384;2022-11-20T20:44:41;0.60;99.90
14934;DHT22;7560;51.364;12.384;2022-11-20T20:50:07;0.60;99.90
14934;DHT22;7560;51.364;12.384;2022-11-20T20:55:10;0.60;99.90
14934;DHT22;7560;51.364;12.384;2022-11-20T21:00:12;0.60;99.90
14934;DHT22;7560;51.364;12.384;2022-11-20T21:05:14;0.60;99.90
14934;DHT22;7560;51.364;12.384;2022-11-20T21:10:15;0.60;99.90
14934;DHT22;7560;51.364;12.384;2022-11-20T21:15:24;0.60;99.90
14934;DHT22;7560;51.364;12.384;2022-11-20T21:20:25;0.60;99.90
14934;DHT22;7560;51.364;12.384;2022-11-20T21:25:46;0.70;99.90
14934;DHT22;7560;51.364;12.384;2022-11-20T21:30:47;0.80;99.90
14934;DHT22;7560;51.364;12.384;2022-11-20T21:35:49;0.80;99.90
14934;DHT22;7560;51.364;12.384;2022-11-20T21:40:51;0.60;99.90
14934;DHT22;7560;51.364;12.384;2022-11-20T21:45:53;0.70;99.90
14934;DHT22;7560;51.364;12.384;2022-11-20T21:51:03;1.00;99.90
14934;DHT22;7560;51.364;12.384;2022-11-20T21:56:09;0.90;99.90
14934;DHT22;7560;51.364;12.384;2022-11-20T22:01:16;0.90;99.90
14934;DHT22;7560;51.364;12.384;2022-11-20T22:06:20;0.90;99.90
14934;DHT22;7560;51.364;12.384;2022-11-20T22:11:21;0.80;99.90
14934;DHT22;7560;51.364;12.384;2022-11-20T22:16:23;0.80;99.90
14934;DHT22;7560;51.364;12.384;2022-11-20T22:21:27;0.80;99.90
14934;DHT22;7560;51.364;12.384;2022-11-20T22:26:33;0.90;99.90
14934;DHT22;7560;51.364;12.384;2022-11-20T22:31:41;0.90;99.90
14934;DHT22;7560;51.364;12.384;2022-11-20T22:36:44;0.90;99.90
14934;DHT22;7560;51.364;12.384;2022-11-20T22:41:46;0.80;99.90
14934;DHT22;7560;51.364;12.384;2022-11-20T22:46:47;0.80;99.90
14934;DHT22;7560;51.364;12.384;2022-11-20T22:51:49;0.80;99.90
14934;DHT22;7560;51.364;12.384;2022-11-20T22:56:51;0.90;99.90
14934;DHT22;7560;51.364;12.384;2022-11-20T23:01:53;0.90;99.90
14934;DHT22;7560;51.364;12.384;2022-11-20T23:06:54;0.90;99.90
14934;DHT22;7560;51.364;12.384;2022-11-20T23:11:56;1.00;99.90
14934;DHT22;7560;51.364;12.384;2022-11-20T23:16:58;1.00;99.90
14934;DHT22;7560;51.364;12.384;2022-11-20T23:22:00;1.00;99.90
14934;DHT22;7560;51.364;12.384;2022-11-20T23:27:01;1.00;99.90
14934;DHT22;7560;51.364;12.384;2022-11-20T23:32:03;0.90;99.90
14934;DHT22;7560;51.364;12.384;2022-11-20T23:37:05;1.00;99.90
14934;DHT22;7560;51.364;12.384;2022-11-20T23:42:06;0.90;99.90
14934;DHT22;7560;51.364;12.384;2022-11-20T23:47:08;1.00;99.90
14934;DHT22;7560;51.364;12.384;2022-11-20T23:52:10;1.00;99.90
14934;DHT22;7560;51.364;12.384;2022-11-20T23:57:12;1.00;99.90
